Time;durP1;ratioP1;P1;durP2;ratioP2;P2;SDS_P1;SDS_P2;PMS_P1;PMS_P2;Temp;Humidity;BMP_temperature;BMP_pressure;BME280_temperature;BME280_humidity;BME280_pressure;Samples;Min_cycle;Max_cycle;Signal;HPM_P1;HPM_P2
2023/07/31 00:02:22;;;;;;;1.20;0.40;;;;;;;13.99;94.07;98892.71;106867;1267;25778;-63
2023/07/31 00:04:54;;;;;;;1.60;0.90;;;;;;;14.04;94.43;98897.44;106994;1270;99096;-62
2023/07/31 00:07:23;;;;;;;2.00;1.00;;;;;;;14.06;94.36;98899.24;106983;1267;25445;-65
2023/07/31 00:09:53;;;;;;;1.60;0.50;;;;;;;14.08;94.53;98891.72;106944;1271;98779;-60
2023/07/31 00:12:23;;;;;;;1.00;0.60;;;;;;;14.10;94.51;98882.44;107028;1270;22631;-62
2023/07/31 00:14:54;;;;;;;3.00;0.90;;;;;;;14.13;94.74;98874.75;106971;1274;98991;-65
2023/07/31 00:17:30;;;;;;;1.10;0.60;;;;;;;14.13;94.80;98869.01;107026;1272;25362;-65
2023/07/31 00:19:59;;;;;;;2.00;0.70;;;;;;;14.11;94.78;98861.02;106994;1270;25395;-64
2023/07/31 00:22:30;;;;;;;1.80;0.70;;;;;;;14.08;94.76;98852.30;107016;1269;98718;-62
2023/07/31 00:25:01;;;;;;;1.70;0.50;;;;;;;14.03;94.62;98847.15;106980;1270;25287;-62
2023/07/31 00:27:34;;;;;;;1.10;0.40;;;;;;;13.95;94.37;98840.75;106937;1259;98958;-61
2023/07/31 00:30:06;;;;;;;1.20;0.60;;;;;;;13.89;94.20;98835.23;107050;1269;26493;-60
2023/07/31 00:32:34;;;;;;;2.40;0.80;;;;;;;13.84;93.81;98834.23;110578;1272;98920;-60
2023/07/31 00:35:03;;;;;;;2.70;0.70;;;;;;;13.82;94.41;98832.80;110720;1270;22126;-60
2023/07/31 00:37:32;;;;;;;1.90;0.70;;;;;;;13.84;94.68;98832.15;110730;1272;22104;-60
2023/07/31 00:40:00;;;;;;;2.70;0.70;;;;;;;13.85;94.85;98832.77;107898;1270;98790;-61
2023/07/31 00:42:38;;;;;;;1.00;0.70;;;;;;;13.85;94.69;98841.16;106966;1267;25275;-62
2023/07/31 00:45:10;;;;;;;0.60;0.40;;;;;;;13.84;94.95;98841.90;106983;1270;100417;-65
2023/07/31 00:47:45;;;;;;;0.70;0.60;;;;;;;13.85;95.03;98845.30;107109;1263;22526;-60
2023/07/31 00:50:17;;;;;;;2.00;1.00;;;;;;;13.80;95.00;98839.95;107056;1267;24231;-64
2023/07/31 00:52:52;;;;;;;1.60;1.10;;;;;;;13.76;95.14;98846.20;106859;1270;98708;-61
2023/07/31 00:55:23;;;;;;;2.20;1.30;;;;;;;13.76;95.11;98844.98;107019;1270;22594;-60
2023/07/31 00:57:59;;;;;;;1.80;1.00;;;;;;;13.67;95.04;98844.73;106917;1269;99354;-61
2023/07/31 01:00:49;;;;;;;1.30;0.90;;;;;;;13.56;94.98;98844.98;106976;1269;22506;-63
2023/07/31 01:03:39;;;;;;;3.10;0.90;;;;;;;13.47;95.47;98843.42;106941;1269;99224;-62
2023/07/31 01:06:19;;;;;;;1.40;0.90;;;;;;;13.45;95.63;98852.47;106979;1270;22517;-61
2023/07/31 01:08:58;;;;;;;0.90;0.60;;;;;;;13.43;96.01;98854.34;106857;1256;98914;-62
2023/07/31 01:11:34;;;;;;;1.10;0.70;;;;;;;13.46;95.87;98858.02;107039;1268;24265;-61
2023/07/31 01:14:06;;;;;;;3.40;1.00;;;;;;;13.42;95.52;98861.80;107006;1269;25275;-65
2023/07/31 01:16:37;;;;;;;1.20;0.60;;;;;;;13.37;95.53;98861.80;106900;1269;99646;-61
2023/07/31 01:19:14;;;;;;;1.00;0.70;;;;;;;13.33;95.60;98861.61;107010;1267;22516;-61
2023/07/31 01:22:12;;;;;;;0.90;0.70;;;;;;;13.27;95.60;98865.84;106936;1269;99097;-62
2023/07/31 01:25:07;;;;;;;1.60;0.70;;;;;;;13.18;95.53;98860.33;106940;1267;25236;-62
2023/07/31 01:27:44;;;;;;;1.30;0.50;;;;;;;13.11;95.66;98850.89;106832;1267;99179;-62
2023/07/31 01:30:22;;;;;;;2.10;0.80;;;;;;;13.10;95.80;98852.04;106978;1267;25464;-61
2023/07/31 01:32:59;;;;;;;1.10;0.80;;;;;;;13.06;95.76;98849.12;106790;1268;98904;-61
2023/07/31 01:35:31;;;;;;;1.50;0.80;;;;;;;13.04;95.79;98849.48;106965;1267;24254;-62
2023/07/31 01:38:02;;;;;;;2.00;0.40;;;;;;;13.01;95.79;98848.98;106912;1267;24266;-61
2023/07/31 01:40:37;;;;;;;3.60;1.00;;;;;;;12.96;95.55;98849.86;106850;1273;99670;-64
2023/07/31 01:43:19;;;;;;;2.00;0.80;;;;;;;12.89;95.72;98851.24;106860;1270;22913;-61
2023/07/31 01:45:53;;;;;;;1.70;0.90;;;;;;;12.83;95.94;98847.97;106860;1274;98765;-62
2023/07/31 01:48:25;;;;;;;1.00;0.70;;;;;;;12.79;95.94;98854.90;106976;1267;22521;-62
2023/07/31 01:50:54;;;;;;;1.50;0.60;;;;;;;12.72;96.04;98852.05;106938;1267;99428;-61
2023/07/31 01:53:25;;;;;;;1.20;0.70;;;;;;;12.66;95.84;98850.91;107104;1272;23314;-60
2023/07/31 01:55:59;;;;;;;1.60;0.70;;;;;;;12.60;95.92;98850.11;107037;1263;23906;-62
2023/07/31 01:58:33;;;;;;;0.90;0.40;;;;;;;12.55;96.05;98852.57;107256;1270;98778;-62
2023/07/31 02:01:10;;;;;;;1.10;0.50;;;;;;;12.50;96.20;98854.48;106988;1267;25427;-61
2023/07/31 02:03:42;;;;;;;1.70;0.80;;;;;;;12.45;96.20;98857.07;108948;1272;98790;-60
2023/07/31 02:06:17;;;;;;;0.50;0.50;;;;;;;12.42;96.27;98857.45;106973;1270;24189;-62
2023/07/31 02:08:53;;;;;;;0.90;0.60;;;;;;;12.39;96.37;98859.22;106956;1267;99306;-61
2023/07/31 02:11:24;;;;;;;2.10;0.90;;;;;;;12.39;96.51;98858.23;106998;1267;25453;-60
2023/07/31 02:13:53;;;;;;;1.00;0.80;;;;;;;12.38;96.47;98861.95;110763;1272;22377;-60
2023/07/31 02:16:22;;;;;;;1.00;0.70;;;;;;;12.36;96.46;98858.27;110642;1267;99077;-60
2023/07/31 02:18:50;;;;;;;1.70;1.00;;;;;;;12.36;96.67;98859.12;106930;1267;22592;-61
2023/07/31 02:21:25;;;;;;;1.00;0.50;;;;;;;12.36;96.84;98861.02;106897;1268;99688;-61
2023/07/31 02:24:14;;;;;;;1.10;0.80;;;;;;;12.34;96.59;98866.55;107099;1270;22535;-61
2023/07/31 02:26:46;;;;;;;1.20;0.60;;;;;;;12.30;96.77;98869.94;106892;1272;98890;-63
2023/07/31 02:29:25;;;;;;;1.40;0.70;;;;;;;12.30;97.06;98866.09;106970;1273;25277;-62
2023/07/31 02:31:59;;;;;;;2.20;0.80;;;;;;;12.32;97.19;98861.81;106995;1267;22521;-66
2023/07/31 02:34:37;;;;;;;1.20;0.60;;;;;;;12.30;97.11;98858.06;106942;1263;99398;-62
2023/07/31 02:37:16;;;;;;;0.90;0.80;;;;;;;12.28;97.11;98861.17;106978;1267;22871;-63
2023/07/31 02:39:47;;;;;;;0.70;0.60;;;;;;;12.27;97.21;98854.23;106849;1267;98831;-62
2023/07/31 02:42:19;;;;;;;0.90;0.70;;;;;;;12.27;97.34;98851.64;107045;1266;24343;-61
2023/07/31 02:44:55;;;;;;;1.60;0.80;;;;;;;12.26;97.29;98856.61;106993;1268;98980;-62
2023/07/31 02:47:30;;;;;;;1.90;1.40;;;;;;;12.23;97.34;98854.69;106965;1257;22527;-61
2023/07/31 02:50:19;;;;;;;1.60;0.80;;;;;;;12.23;97.36;98858.39;106924;1272;24367;-62
2023/07/31 02:53:01;;;;;;;2.20;0.80;;;;;;;12.26;97.72;98859.05;106942;1267;98963;-61
2023/07/31 02:55:40;;;;;;;2.10;0.90;;;;;;;12.31;97.88;98860.13;106982;1267;25265;-62
2023/07/31 02:58:15;;;;;;;2.60;1.00;;;;;;;12.39;98.05;98863.09;106975;1272;99153;-61
2023/07/31 03:01:04;;;;;;;1.10;1.00;;;;;;;12.46;98.19;98865.58;106998;1274;25226;-62
2023/07/31 03:03:42;;;;;;;2.20;1.50;;;;;;;12.52;98.08;98871.45;106933;1267;98774;-62
2023/07/31 03:06:13;;;;;;;;;;;;;;;12.56;98.26;98873.10;107050;1274;22706;-62
2023/07/31 03:08:54;;;;;;;1.40;0.80;;;;;;;12.63;98.56;98871.05;106954;1269;84272;-62
2023/07/31 03:11:35;;;;;;;2.20;0.90;;;;;;;12.67;98.54;98871.06;107047;1270;22561;-63
2023/07/31 03:14:13;;;;;;;0.90;0.90;;;;;;;12.73;98.61;98866.48;107094;1274;22536;-63
2023/07/31 03:16:48;;;;;;;1.20;0.70;;;;;;;12.76;98.50;98863.27;106900;1270;98803;-62
2023/07/31 03:19:19;;;;;;;4.20;1.00;;;;;;;12.79;98.56;98858.95;107055;1273;22514;-62
2023/07/31 03:21:54;;;;;;;3.10;1.30;;;;;;;12.79;98.47;98862.79;106973;1268;98770;-62
2023/07/31 03:24:23;;;;;;;2.10;1.00;;;;;;;12.72;98.38;98863.36;107009;1267;25230;-63
2023/07/31 03:26:52;;;;;;;2.60;0.90;;;;;;;12.69;98.31;98863.45;106918;1274;98942;-65
2023/07/31 03:29:26;;;;;;;1.60;0.90;;;;;;;12.69;98.85;98864.88;107034;1270;25275;-62
2023/07/31 03:32:01;;;;;;;2.20;1.00;;;;;;;12.69;98.94;98871.30;106958;1271;22524;-61
2023/07/31 03:34:40;;;;;;;1.70;0.80;;;;;;;12.69;98.93;98872.88;106783;1267;99977;-62
2023/07/31 03:37:14;;;;;;;1.10;0.80;;;;;;;12.66;98.87;98876.02;106933;1265;22765;-63
2023/07/31 03:39:54;;;;;;;2.10;0.90;;;;;;;12.66;99.00;98879.70;106886;1269;100299;-63
2023/07/31 03:42:26;;;;;;;1.20;1.00;;;;;;;12.68;99.37;98878.19;107015;1272;22514;-60
2023/07/31 03:45:15;;;;;;;2.60;0.90;;;;;;;12.70;99.37;98885.84;106908;1267;99464;-64
2023/07/31 03:47:54;;;;;;;1.80;1.10;;;;;;;12.74;99.54;98886.86;106976;1269;22527;-63
2023/07/31 03:50:28;;;;;;;2.70;0.90;;;;;;;12.77;99.66;98888.23;107103;1272;22521;-62
2023/07/31 03:53:00;;;;;;;2.50;1.30;;;;;;;12.78;99.62;98891.13;106938;1274;100375;-61
2023/07/31 03:55:38;;;;;;;2.20;0.90;;;;;;;12.82;99.91;98888.28;107595;1269;22528;-60
2023/07/31 03:58:26;;;;;;;2.10;1.10;;;;;;;12.88;100.00;98887.25;108049;1268;98755;-63
2023/07/31 04:00:57;;;;;;;2.00;1.20;;;;;;;12.97;100.00;98888.24;106974;1267;24252;-62
2023/07/31 04:03:30;;;;;;;3.50;1.10;;;;;;;13.00;99.91;98885.40;106827;1273;98998;-65
2023/07/31 04:06:06;;;;;;;1.90;0.90;;;;;;;13.04;100.00;98884.95;107000;1274;24278;-61
2023/07/31 04:08:35;;;;;;;1.50;0.90;;;;;;;13.07;100.00;98888.21;106885;1268;99081;-60
2023/07/31 04:11:14;;;;;;;1.90;0.90;;;;;;;13.09;100.00;98885.59;107043;1263;22538;-64
2023/07/31 04:13:43;;;;;;;2.20;1.00;;;;;;;13.12;100.00;98883.67;107032;1273;22526;-60
2023/07/31 04:16:19;;;;;;;3.40;0.80;;;;;;;13.24;100.00;98887.02;107025;1273;99034;-64
2023/07/31 04:18:48;;;;;;;1.40;1.00;;;;;;;13.31;100.00;98883.95;107026;1273;26077;-61
2023/07/31 04:21:30;;;;;;;;;;;;;;;;;;;;;
2023/07/31 04:23:59;;;;;;;4.50;0.80;;;;;;;13.50;100.00;98885.17;106969;1272;22599;-62
2023/07/31 04:26:32;;;;;;;1.40;1.00;;;;;;;13.58;100.00;98885.94;106943;1273;23875;-62
2023/07/31 04:29:11;;;;;;;1.50;0.70;;;;;;;13.61;100.00;98886.23;106880;1272;24664;-64
2023/07/31 04:31:43;;;;;;;1.10;0.50;;;;;;;13.69;100.00;98885.19;107044;1270;22520;-63
2023/07/31 04:34:14;;;;;;;1.60;0.90;;;;;;;13.79;100.00;98881.64;106926;1262;98940;-63
2023/07/31 04:36:46;;;;;;;2.40;1.00;;;;;;;13.84;100.00;98882.33;106981;1271;24901;-61
2023/07/31 04:39:17;;;;;;;1.40;0.70;;;;;;;13.96;100.00;98886.69;106905;1274;99142;-62
2023/07/31 04:41:49;;;;;;;1.40;0.80;;;;;;;14.01;100.00;98885.44;106918;1270;25347;-61
2023/07/31 04:44:18;;;;;;;2.10;0.80;;;;;;;14.12;100.00;98882.31;106933;1274;25303;-63
2023/07/31 04:46:47;;;;;;;2.80;0.90;;;;;;;14.21;100.00;98880.09;106894;1267;98882;-61
2023/07/31 04:49:19;;;;;;;3.50;0.80;;;;;;;14.30;100.00;98883.60;107025;1267;22644;-60
2023/07/31 04:51:51;;;;;;;1.30;0.60;;;;;;;14.40;100.00;98883.67;106891;1272;99099;-62
2023/07/31 04:54:22;;;;;;;4.60;0.70;;;;;;;14.46;100.00;98875.38;106867;1270;25353;-62
2023/07/31 04:57:07;;;;;;;;;;;;;;;;;;;;;
2023/07/31 04:59:36;;;;;;;1.50;0.60;;;;;;;14.64;100.00;98875.46;107028;1274;22515;-60
2023/07/31 05:02:10;;;;;;;1.10;0.90;;;;;;;14.68;100.00;98875.42;107043;1269;22733;-62
2023/07/31 05:05:02;;;;;;;2.50;0.80;;;;;;;14.74;100.00;98874.29;106785;1270;99173;-61
2023/07/31 05:07:36;;;;;;;1.40;0.70;;;;;;;14.86;100.00;98872.49;107042;1271;25472;-61
2023/07/31 05:10:08;;;;;;;1.00;0.80;;;;;;;14.97;100.00;98875.06;106899;1267;98971;-61
2023/07/31 05:12:38;;;;;;;2.10;0.70;;;;;;;15.04;100.00;98878.26;106989;1273;22525;-61
2023/07/31 05:15:10;;;;;;;3.80;1.00;;;;;;;15.05;100.00;98877.45;107175;1268;99128;-61
2023/07/31 05:17:48;;;;;;;1.60;0.70;;;;;;;15.14;100.00;98880.64;107017;1270;22525;-59
2023/07/31 05:20:19;;;;;;;1.50;0.80;;;;;;;15.23;100.00;98884.79;106969;1267;22538;-59
2023/07/31 05:22:48;;;;;;;3.80;1.00;;;;;;;15.32;100.00;98882.71;106874;1269;98929;-62
2023/07/31 05:25:20;;;;;;;1.40;0.80;;;;;;;15.36;100.00;98885.50;107016;1270;25431;-61
2023/07/31 05:27:49;;;;;;;1.70;0.80;;;;;;;15.42;100.00;98885.70;106976;1267;99144;-58
2023/07/31 05:30:21;;;;;;;2.70;1.00;;;;;;;15.50;100.00;98885.16;107226;1273;22520;-59
2023/07/31 05:32:54;;;;;;;3.20;1.20;;;;;;;15.56;100.00;98882.14;106656;1269;99242;-59
2023/07/31 05:35:25;;;;;;;3.20;0.90;;;;;;;15.64;100.00;98884.13;106883;1267;24368;-62
2023/07/31 05:37:59;;;;;;;2.70;1.00;;;;;;;15.75;100.00;98878.73;106861;1267;22626;-60
2023/07/31 05:40:35;;;;;;;4.40;1.50;;;;;;;15.84;100.00;98878.27;106899;1267;99119;-60
2023/07/31 05:43:08;;;;;;;3.70;1.20;;;;;;;15.92;100.00;98874.48;107023;1269;25245;-61
2023/07/31 05:45:43;;;;;;;1.60;0.70;;;;;;;15.98;100.00;98871.08;106827;1270;99215;-61
2023/07/31 05:48:17;;;;;;;1.40;0.90;;;;;;;16.09;100.00;98871.30;106884;1273;25402;-60
2023/07/31 05:50:46;;;;;;;1.90;0.90;;;;;;;16.22;100.00;98867.45;107038;1274;99103;-61
2023/07/31 05:53:21;;;;;;;1.80;0.80;;;;;;;16.31;100.00;98865.73;107044;1267;22524;-61
2023/07/31 05:55:49;;;;;;;2.50;0.80;;;;;;;16.39;100.00;98865.64;106955;1267;22610;-62
2023/07/31 05:58:27;;;;;;;5.60;1.00;;;;;;;16.44;99.90;98868.58;106926;1267;99093;-61
2023/07/31 06:01:00;;;;;;;2.40;0.90;;;;;;;16.48;99.88;98867.38;107048;1267;22693;-62
2023/07/31 06:03:38;;;;;;;2.90;0.60;;;;;;;16.53;99.87;98870.56;102878;1270;5383400;-64
2023/07/31 06:06:07;;;;;;;2.80;0.90;;;;;;;16.68;99.91;98865.11;107244;1267;22989;-61
2023/07/31 06:08:36;;;;;;;3.70;0.80;;;;;;;16.77;99.62;98867.49;106942;1267;100614;-64
2023/07/31 06:11:14;;;;;;;1.60;0.80;;;;;;;16.86;99.79;98865.91;107195;1269;22524;-70
2023/07/31 06:13:48;;;;;;;0.60;0.50;;;;;;;16.96;99.54;98866.95;107012;1267;23167;-59
2023/07/31 06:16:21;;;;;;;3.10;1.00;;;;;;;17.06;99.45;98862.70;106942;1267;99297;-58
2023/07/31 06:18:53;;;;;;;1.50;0.80;;;;;;;17.15;99.33;98864.92;106987;1267;24319;-62
2023/07/31 06:21:21;;;;;;;4.10;0.80;;;;;;;17.27;99.21;98863.73;106811;1262;99058;-58
2023/07/31 06:23:50;;;;;;;1.30;0.60;;;;;;;17.36;99.09;98868.48;107005;1267;22552;-58
2023/07/31 06:26:20;;;;;;;1.60;0.70;;;;;;;17.49;98.96;98871.19;106997;1267;25315;-58
2023/07/31 06:28:49;;;;;;;2.90;0.70;;;;;;;17.67;98.83;98868.57;107067;1267;98844;-59
2023/07/31 06:31:22;;;;;;;3.70;1.00;;;;;;;17.82;98.63;98868.98;107086;1267;22524;-56
2023/07/31 06:33:52;;;;;;;2.70;1.00;;;;;;;17.96;98.40;98871.38;106904;1267;99304;-61
2023/07/31 06:36:21;;;;;;;1.70;0.80;;;;;;;18.07;98.05;98874.79;107130;1267;22747;-60
2023/07/31 06:38:50;;;;;;;3.00;0.90;;;;;;;18.20;97.90;98876.77;106999;1261;98958;-59
2023/07/31 06:41:20;;;;;;;4.10;0.90;;;;;;;18.39;97.95;98878.48;107148;1267;22752;-58
2023/07/31 06:43:48;;;;;;;2.90;1.10;;;;;;;18.57;97.78;98875.98;107052;1261;24333;-59
2023/07/31 06:46:17;;;;;;;13.20;1.20;;;;;;;18.72;97.45;98877.01;107023;1273;98777;-58
2023/07/31 06:48:49;;;;;;;1.50;0.60;;;;;;;18.91;97.48;98878.81;106935;1269;22530;-59
2023/07/31 06:51:18;;;;;;;1.50;0.50;;;;;;;19.05;96.85;98883.65;106824;1269;99184;-57
2023/07/31 06:53:48;;;;;;;4.90;0.80;;;;;;;19.20;96.43;98881.62;107131;1262;22732;-57
2023/07/31 06:56:17;;;;;;;1.60;0.80;;;;;;;19.34;96.07;98881.90;106983;1267;24261;-58
2023/07/31 06:58:45;;;;;;;3.40;0.80;;;;;;;19.44;95.42;98881.95;106816;1253;99014;-58
2023/07/31 07:01:14;;;;;;;0.60;0.60;;;;;;;19.47;95.07;98881.73;106984;1267;25379;-61
2023/07/31 07:03:43;;;;;;;2.20;0.70;;;;;;;19.58;95.05;98880.30;106884;1267;99230;-57
2023/07/31 07:06:12;;;;;;;1.20;0.50;;;;;;;19.74;94.40;98882.73;106914;1267;22519;-56
2023/07/31 07:08:40;;;;;;;3.40;0.70;;;;;;;19.93;94.53;98881.08;106956;1270;99413;-57
2023/07/31 07:11:09;;;;;;;2.10;0.60;;;;;;;20.06;94.00;98886.33;107021;1267;24202;-57
2023/07/31 07:13:38;;;;;;;10.70;0.70;;;;;;;20.31;93.98;98883.56;108013;1273;25547;-57
2023/07/31 07:16:07;;;;;;;1.60;0.70;;;;;;;20.68;93.83;98887.14;106947;1267;99169;-60
2023/07/31 07:18:35;;;;;;;2.60;0.50;;;;;;;21.60;95.40;98883.02;107087;1273;22518;-57
2023/07/31 07:21:09;;;;;;;1.50;0.60;;;;;;;23.46;97.88;98875.76;106857;1269;99029;-60
2023/07/31 07:23:37;;;;;;;2.10;0.70;;;;;;;25.61;97.93;98872.21;106950;1267;23124;-66
2023/07/31 07:26:06;;;;;;;1.40;0.40;;;;;;;26.86;93.83;98869.29;106996;1267;25284;-63
2023/07/31 07:28:37;;;;;;;1.50;0.50;;;;;;;26.77;88.20;98878.34;106963;1267;98731;-60
2023/07/31 07:31:05;;;;;;;0.80;0.50;;;;;;;27.00;88.76;98869.32;106905;1263;23668;-59
2023/07/31 07:33:34;;;;;;;2.10;0.50;;;;;;;27.78;89.69;98867.23;106874;1267;98790;-58
2023/07/31 07:36:03;;;;;;;1.00;0.30;;;;;;;28.69;88.25;98866.06;107041;1267;24713;-59
2023/07/31 07:38:34;;;;;;;1.00;0.40;;;;;;;29.10;85.31;98870.39;107025;1268;22529;-59
2023/07/31 07:41:03;;;;;;;2.00;0.60;;;;;;;29.48;85.59;98865.13;106967;1269;24620;-59
2023/07/31 07:43:31;;;;;;;5.30;0.50;;;;;;;30.51;83.33;98865.38;107001;1267;22532;-62
2023/07/31 07:46:00;;;;;;;1.70;0.50;;;;;;;30.29;79.20;98865.81;107015;1267;98736;-59
2023/07/31 07:48:29;;;;;;;2.10;0.50;;;;;;;30.21;78.32;98867.92;107082;1270;22878;-58
2023/07/31 07:50:58;;;;;;;1.30;0.40;;;;;;;30.63;77.08;98865.17;107011;1273;99244;-59
2023/07/31 07:53:26;;;;;;;1.60;0.40;;;;;;;31.17;76.68;98867.19;107064;1267;25306;-61
2023/07/31 07:55:55;;;;;;;1.10;0.40;;;;;;;32.17;76.65;98858.73;107093;1267;22608;-59
2023/07/31 07:58:23;;;;;;;1.60;0.60;;;;;;;33.57;76.19;98858.14;106816;1271;98984;-59
2023/07/31 08:00:52;;;;;;;0.70;0.20;;;;;;;35.44;75.00;98854.52;106986;1270;26558;-61
2023/07/31 08:03:21;;;;;;;0.80;0.40;;;;;;;36.67;72.26;98852.00;106996;1267;99011;-61
2023/07/31 08:05:50;;;;;;;1.00;0.70;;;;;;;36.91;69.47;98847.98;106981;1270;25322;-59
2023/07/31 08:08:19;;;;;;;1.90;0.40;;;;;;;37.44;66.71;98848.16;106961;1269;22578;-59
2023/07/31 08:10:48;;;;;;;0.60;0.30;;;;;;;37.92;63.38;98848.77;106896;1267;99418;-60
2023/07/31 08:13:17;;;;;;;1.10;0.40;;;;;;;38.17;62.57;98853.23;107017;1273;22520;-58
2023/07/31 08:15:48;;;;;;;1.30;0.40;;;;;;;38.70;59.35;98850.92;106916;1267;98754;-64
2023/07/31 08:18:17;;;;;;;2.40;0.40;;;;;;;39.38;57.35;98849.36;107004;1267;24337;-62
2023/07/31 08:20:46;;;;;;;0.90;0.20;;;;;;;39.74;54.42;98852.96;106941;1267;98882;-61
2023/07/31 08:23:18;;;;;;;0.50;0.20;;;;;;;39.70;52.17;98854.53;107055;1270;24212;-61
2023/07/31 08:25:49;;;;;;;1.30;0.40;;;;;;;40.16;50.97;98851.48;107050;1267;23876;-63
2023/07/31 08:28:18;;;;;;;1.80;0.40;;;;;;;41.26;49.60;98846.60;106928;1263;98736;-60
2023/07/31 08:30:47;;;;;;;1.20;0.50;;;;;;;42.78;47.78;98848.26;106966;1267;22536;-63
2023/07/31 08:33:16;;;;;;;1.10;0.50;;;;;;;44.06;45.72;98847.71;106972;1267;99893;-60
2023/07/31 08:35:44;;;;;;;0.80;0.50;;;;;;;44.99;43.71;98841.58;106983;1267;25287;-61
2023/07/31 08:38:13;;;;;;;0.80;0.60;;;;;;;45.66;41.41;98834.58;106962;1267;25466;-59
2023/07/31 08:40:42;;;;;;;0.80;0.60;;;;;;;46.23;38.83;98835.33;106939;1272;98675;-59
2023/07/31 08:43:10;;;;;;;1.00;0.60;;;;;;;46.86;37.65;98835.35;106962;1269;25367;-61
2023/07/31 08:45:42;;;;;;;0.80;0.80;;;;;;;48.21;36.47;98827.75;106884;1269;98709;-61
2023/07/31 08:48:12;;;;;;;1.70;1.20;;;;;;;48.48;32.82;98830.59;106916;1270;22524;-61
2023/07/31 08:50:43;;;;;;;1.40;1.20;;;;;;;48.50;30.26;98834.36;106961;1267;98931;-61
2023/07/31 08:53:13;;;;;;;2.40;1.40;;;;;;;48.56;28.24;98830.46;107044;1266;22717;-60
2023/07/31 08:55:41;;;;;;;1.70;1.60;;;;;;;48.26;26.38;98832.31;107073;1267;22517;-61
2023/07/31 08:58:13;;;;;;;1.80;1.70;;;;;;;48.43;25.44;98831.13;106922;1267;98825;-63
2023/07/31 09:00:44;;;;;;;2.30;2.20;;;;;;;48.77;24.56;98828.66;107058;1273;24246;-61
2023/07/31 09:03:18;;;;;;;2.90;2.70;;;;;;;49.59;24.01;98828.58;106916;1267;99287;-63
2023/07/31 09:05:47;;;;;;;2.70;2.60;;;;;;;48.96;22.11;98823.24;107074;1273;22525;-61
2023/07/31 09:08:20;;;;;;;3.20;3.00;;;;;;;49.30;22.22;98822.91;107034;1269;22517;-63
2023/07/31 09:10:52;;;;;;;3.50;3.20;;;;;;;50.03;21.37;98819.31;106983;1267;100123;-59
2023/07/31 09:13:24;;;;;;;4.00;3.80;;;;;;;50.73;21.71;98815.38;107065;1267;24205;-63
2023/07/31 09:15:53;;;;;;;4.60;4.40;;;;;;;51.86;21.19;98816.87;106867;1267;98963;-64
2023/07/31 09:18:26;;;;;;;;;;;;;;;52.17;20.67;98816.56;107018;1267;22677;-61
2023/07/31 09:21:04;;;;;;;6.30;6.00;;;;;;;52.99;20.61;98806.36;107043;1274;86018;-62
2023/07/31 09:23:44;;;;;;;6.90;6.60;;;;;;;54.04;19.73;98804.02;107087;1267;25326;-60
2023/07/31 09:26:32;;;;;;;8.60;8.00;;;;;;;53.77;18.54;98804.33;107076;1274;25593;-59
2023/07/31 09:29:07;;;;;;;7.80;7.40;;;;;;;53.38;17.83;98805.98;106964;1256;98578;-62
2023/07/31 09:31:41;;;;;;;9.50;8.90;;;;;;;53.28;17.25;98800.12;107073;1267;22513;-64
2023/07/31 09:34:13;;;;;;;6.20;5.90;;;;;;;51.52;15.57;98796.41;106921;1267;100279;-60
2023/07/31 09:36:47;;;;;;;3.20;3.10;;;;;;;48.27;15.94;98796.83;106902;1270;22530;-58
2023/07/31 09:39:30;;;;;;;2.10;1.60;;;;;;;45.55;16.11;98793.85;106952;1267;98829;-58
2023/07/31 09:42:03;;;;;;;2.20;1.30;;;;;;;44.30;16.58;98789.15;106827;1272;22544;-60
2023/07/31 09:44:41;;;;;;;1.10;1.10;;;;;;;45.34;16.85;98790.11;106845;1269;24377;-60
2023/07/31 09:47:26;;;;;;;3.00;1.20;;;;;;;46.05;16.74;98788.05;107127;1272;22576;-63
2023/07/31 09:49:56;;;;;;;3.10;1.10;;;;;;;46.79;16.97;98784.88;106997;1269;25329;-59
2023/07/31 09:52:27;;;;;;;2.40;1.40;;;;;;;48.19;16.94;98784.91;106969;1267;100130;-62
2023/07/31 09:54:57;;;;;;;4.70;1.40;;;;;;;48.12;16.80;98785.24;107078;1267;22625;-66
2023/07/31 09:57:27;;;;;;;3.90;2.00;;;;;;;48.06;17.07;98784.41;107046;1267;98890;-62
2023/07/31 09:59:58;;;;;;;15.80;3.40;;;;;;;48.24;16.98;98776.95;107077;1268;22555;-66
2023/07/31 10:02:29;;;;;;;4.20;1.20;;;;;;;47.39;17.10;98776.83;106971;1263;22576;-65
2023/07/31 10:05:02;;;;;;;1.70;0.90;;;;;;;46.60;16.88;98770.40;106808;1267;98560;-64
2023/07/31 10:07:37;;;;;;;3.10;0.90;;;;;;;45.31;16.79;98766.46;107003;1267;25339;-63
2023/07/31 10:10:09;;;;;;;1.80;0.80;;;;;;;45.00;17.38;98763.22;106939;1267;98769;-64
2023/07/31 10:12:38;;;;;;;1.00;0.80;;;;;;;46.03;17.54;98764.58;107013;1267;22567;-61
2023/07/31 10:15:09;;;;;;;0.50;0.50;;;;;;;46.06;17.21;98759.05;106886;1267;98957;-61
2023/07/31 10:17:41;;;;;;;1.10;0.80;;;;;;;46.53;17.68;98761.06;106971;1267;22576;-60
2023/07/31 10:20:16;;;;;;;2.30;0.80;;;;;;;47.78;17.14;98764.80;106911;1267;25287;-60
2023/07/31 10:22:46;;;;;;;1.80;1.40;;;;;;;47.67;17.04;98764.16;107044;1267;99084;-60
2023/07/31 10:25:17;;;;;;;9.20;2.10;;;;;;;49.00;17.14;98761.09;107052;1267;25335;-59
2023/07/31 10:27:47;;;;;;;2.40;2.30;;;;;;;50.98;16.86;98764.97;106982;1269;99361;-63
2023/07/31 10:30:20;;;;;;;3.60;3.10;;;;;;;52.35;16.50;98755.11;107045;1269;22623;-61
2023/07/31 10:32:50;;;;;;;3.40;2.70;;;;;;;50.15;15.15;98755.09;106922;1263;99409;-59
2023/07/31 10:35:22;;;;;;;1.90;1.80;;;;;;;47.82;15.29;98751.61;107042;1269;24197;-60
2023/07/31 10:37:52;;;;;;;1.70;1.60;;;;;;;46.44;15.56;98751.60;107054;1267;25287;-59
2023/07/31 10:40:26;;;;;;;2.30;2.20;;;;;;;48.11;15.83;98751.16;106908;1268;98888;-61
2023/07/31 10:42:59;;;;;;;3.40;3.20;;;;;;;50.62;15.78;98750.95;106975;1256;23902;-63
2023/07/31 10:45:41;;;;;;;5.80;5.40;;;;;;;52.35;15.25;98752.94;106955;1267;98800;-60
2023/07/31 10:48:15;;;;;;;8.30;7.80;;;;;;;53.23;14.98;98749.59;106996;1267;25246;-60
2023/07/31 10:50:52;;;;;;;9.50;8.50;;;;;;;54.58;14.83;98749.05;106862;1270;100343;-60
2023/07/31 10:53:34;;;;;;;7.60;7.10;;;;;;;52.84;14.39;98747.63;106998;1270;22524;-61
2023/07/31 10:56:05;;;;;;;5.60;5.00;;;;;;;51.42;14.28;98739.70;107062;1267;22543;-59
2023/07/31 10:58:34;;;;;;;2.90;2.70;;;;;;;48.99;14.15;98736.05;106940;1267;98887;-59
2023/07/31 11:01:05;;;;;;;3.70;1.70;;;;;;;47.05;14.43;98736.44;107079;1269;24183;-60
2023/07/31 11:03:49;;;;;;;6.60;1.10;;;;;;;45.34;14.50;98733.86;107001;1266;98754;-60
2023/07/31 11:06:18;;;;;;;1.70;0.80;;;;;;;43.15;14.85;98729.16;106973;1267;24282;-63
2023/07/31 11:08:49;;;;;;;0.70;0.50;;;;;;;42.12;15.15;98719.59;106980;1267;99021;-60
2023/07/31 11:11:20;;;;;;;1.40;0.40;;;;;;;40.11;15.32;98719.17;107131;1266;22956;-62
2023/07/31 11:13:54;;;;;;;0.20;0.20;;;;;;;37.95;16.08;98729.94;107031;1269;22530;-62
2023/07/31 11:16:25;;;;;;;3.90;0.90;;;;;;;36.39;16.62;98728.34;106914;1268;98805;-62
2023/07/31 11:18:55;;;;;;;3.90;0.30;;;;;;;35.26;17.25;98731.12;107029;1263;24030;-59
2023/07/31 11:21:25;;;;;;;0.80;0.30;;;;;;;34.72;17.71;98727.56;106942;1269;99067;-61
2023/07/31 11:23:57;;;;;;;2.30;0.30;;;;;;;34.34;18.14;98727.85;107086;1268;24219;-63
2023/07/31 11:26:30;;;;;;;;;;;;;;;33.45;18.72;98727.43;107043;1267;22498;-62
2023/07/31 11:28:59;;;;;;;1.00;0.50;;;;;;;33.22;19.34;98721.45;106900;1269;85040;-61
2023/07/31 11:31:28;;;;;;;1.10;0.50;;;;;;;32.89;19.79;98719.74;107099;1267;22527;-61
2023/07/31 11:34:06;;;;;;;0.30;0.20;;;;;;;32.40;20.29;98720.23;106966;1272;99384;-59
2023/07/31 11:36:35;;;;;;;0.40;0.20;;;;;;;31.68;20.98;98719.06;107062;1267;22627;-60
2023/07/31 11:39:09;;;;;;;3.30;0.50;;;;;;;30.62;21.20;98721.16;107109;1266;99029;-60
2023/07/31 11:41:41;;;;;;;0.60;0.20;;;;;;;29.74;21.94;98731.47;107224;1266;22543;-60
2023/07/31 11:44:11;;;;;;;2.40;0.60;;;;;;;29.15;22.57;98733.30;107047;1267;23190;-61
2023/07/31 11:47:01;;;;;;;6.90;0.70;;;;;;;28.74;23.02;98727.55;106925;1269;98812;-60
2023/07/31 11:49:30;;;;;;;1.60;0.30;;;;;;;28.35;23.42;98726.89;107283;1269;24231;-60
2023/07/31 11:51:59;;;;;;;2.20;0.40;;;;;;;27.84;23.91;98730.44;107090;1272;98885;-57
2023/07/31 11:54:30;;;;;;;1.20;0.50;;;;;;;27.32;24.14;98732.52;106999;1272;22640;-62